createdAt,value
2022-12-31T00:03:36.183Z,18.87
2022-12-31T00:08:38.310Z,21.48
2022-12-31T00:13:40.214Z,13.57
2022-12-31T00:18:46.039Z,21.93
2022-12-31T00:23:48.066Z,21.08
2022-12-31T00:28:49.872Z,21.03
2022-12-31T00:33:51.814Z,19.33
2022-12-31T00:38:54.556Z,17.20
2022-12-31T00:43:56.881Z,18.63
2022-12-31T00:48:58.764Z,18.77
2022-12-31T00:54:00.661Z,21.80
2022-12-31T00:59:02.403Z,18.00
2022-12-31T01:04:09.145Z,18.48
2022-12-31T01:09:11.846Z,17.10
2022-12-31T01:19:21.594Z,17.10
2022-12-31T01:24:23.604Z,18.60
2022-12-31T01:29:25.511Z,17.90
2022-12-31T01:34:27.432Z,13.67
2022-12-31T01:39:29.264Z,16.47
2022-12-31T01:44:31.035Z,18.17
2022-12-31T01:49:49.465Z,17.43
2022-12-31T01:54:54.482Z,17.23
2022-12-31T01:59:56.237Z,18.17
2022-12-31T02:04:58.392Z,19.37
2022-12-31T02:10:00.263Z,12.38
2022-12-31T02:15:02.128Z,17.63
2022-12-31T02:20:13.938Z,18.70
2022-12-31T02:25:23.321Z,18.63
2022-12-31T02:30:25.438Z,17.75
2022-12-31T02:35:34.796Z,12.50
2022-12-31T02:40:36.912Z,20.08
2022-12-31T02:45:43.459Z,14.48
2022-12-31T02:50:52.067Z,15.70
2022-12-31T02:55:59.082Z,18.65
2022-12-31T03:01:00.985Z,17.05
2022-12-31T03:06:03.571Z,21.70
2022-12-31T03:11:05.457Z,15.75
2022-12-31T03:16:07.437Z,16.83
2022-12-31T03:21:15.098Z,17.02
2022-12-31T03:26:16.942Z,19.45
2022-12-31T03:31:18.936Z,19.80
2022-12-31T03:36:20.913Z,18.48
2022-12-31T03:41:22.656Z,13.43
2022-12-31T03:46:24.502Z,20.50
2022-12-31T03:51:26.320Z,20.07
2022-12-31T03:56:28.297Z,13.67
2022-12-31T04:01:30.354Z,15.32
2022-12-31T04:06:32.219Z,16.27
2022-12-31T04:11:34.041Z,16.17
2022-12-31T04:16:35.914Z,16.97
2022-12-31T04:21:37.829Z,13.90
2022-12-31T04:26:39.687Z,13.43
2022-12-31T04:31:41.486Z,14.00
2022-12-31T04:36:43.325Z,16.47
2022-12-31T04:41:45.099Z,14.03
2022-12-31T04:46:46.970Z,14.07
2022-12-31T04:51:48.751Z,15.67
2022-12-31T04:56:50.627Z,13.70
2022-12-31T05:01:54.145Z,13.63
2022-12-31T05:06:56.228Z,14.68
2022-12-31T05:12:00.673Z,16.25
2022-12-31T05:17:02.582Z,13.55
2022-12-31T05:22:05.612Z,18.63
2022-12-31T05:27:07.419Z,16.17
2022-12-31T05:32:09.453Z,16.00
2022-12-31T05:37:11.321Z,14.85
2022-12-31T05:42:14.179Z,11.77
2022-12-31T05:47:16.335Z,10.80
2022-12-31T05:52:19.068Z,11.38
2022-12-31T05:57:21.318Z,13.27
2022-12-31T06:02:23.398Z,10.90
2022-12-31T06:07:25.247Z,10.17
2022-12-31T06:12:27.083Z,11.77
2022-12-31T06:17:28.879Z,9.53
2022-12-31T06:22:30.778Z,10.37
2022-12-31T06:27:32.725Z,10.73
2022-12-31T06:32:34.541Z,9.03
2022-12-31T06:37:36.420Z,9.57
2022-12-31T06:42:38.184Z,10.43
2022-12-31T06:47:40.043Z,10.97
2022-12-31T06:52:41.870Z,10.80
2022-12-31T06:57:43.981Z,9.97
2022-12-31T07:02:57.493Z,10.55
2022-12-31T07:08:26.049Z,9.85
2022-12-31T07:13:53.732Z,12.57
2022-12-31T07:18:58.373Z,12.75
2022-12-31T07:24:00.429Z,13.32
2022-12-31T07:29:05.030Z,17.73
2022-12-31T07:34:30.369Z,15.25
2022-12-31T07:39:42.251Z,16.10
2022-12-31T07:45:37.887Z,13.65
2022-12-31T07:50:39.940Z,11.38
2022-12-31T07:55:41.718Z,10.57
2022-12-31T08:00:43.613Z,7.80
2022-12-31T08:06:03.080Z,10.93
2022-12-31T08:11:29.326Z,10.98
2022-12-31T08:16:31.431Z,12.43
2022-12-31T08:21:39.617Z,11.80
2022-12-31T08:26:52.816Z,9.93
2022-12-31T08:32:17.310Z,10.45
2022-12-31T08:37:21.683Z,10.02
2022-12-31T08:42:44.214Z,9.57
2022-12-31T08:47:55.052Z,10.50
2022-12-31T08:53:00.281Z,7.53
2022-12-31T08:58:20.419Z,10.32
2022-12-31T09:03:27.695Z,8.13
2022-12-31T09:08:36.333Z,7.05
2022-12-31T09:13:46.381Z,6.05
2022-12-31T09:18:48.269Z,7.30
2022-12-31T09:23:50.268Z,6.03
2022-12-31T09:28:57.843Z,7.20
2022-12-31T09:34:08.530Z,6.30
2022-12-31T09:39:43.072Z,7.18
2022-12-31T09:45:22.083Z,5.53
2022-12-31T09:50:38.870Z,5.45
2022-12-31T09:55:48.304Z,9.15
2022-12-31T10:01:08.815Z,7.00
2022-12-31T10:06:31.962Z,9.60
2022-12-31T10:11:45.736Z,6.90
2022-12-31T10:16:50.226Z,7.47
2022-12-31T10:22:08.247Z,6.88
2022-12-31T10:27:28.663Z,7.55
2022-12-31T10:32:39.157Z,4.90
2022-12-31T10:38:02.820Z,6.18
2022-12-31T10:48:28.622Z,6.38
2022-12-31T10:53:48.801Z,6.18
2022-12-31T10:59:09.268Z,5.03
2022-12-31T11:04:20.212Z,7.93
2022-12-31T11:09:56.388Z,7.05
2022-12-31T11:15:20.674Z,5.10
2022-12-31T11:20:39.419Z,5.10
2022-12-31T11:26:14.497Z,6.03
2022-12-31T11:31:18.980Z,9.70
2022-12-31T11:36:24.481Z,6.32
2022-12-31T11:41:39.198Z,5.30
2022-12-31T11:47:10.585Z,7.30
2022-12-31T11:52:27.561Z,7.22
2022-12-31T11:57:36.990Z,7.50
2022-12-31T12:02:42.768Z,7.10
2022-12-31T12:07:44.773Z,8.25
2022-12-31T12:12:46.597Z,10.67
2022-12-31T12:17:53.734Z,7.47
2022-12-31T12:22:56.263Z,8.48
2022-12-31T12:27:58.093Z,7.65
2022-12-31T12:33:01.743Z,6.40
2022-12-31T12:38:08.357Z,6.82
2022-12-31T12:43:24.650Z,5.72
2022-12-31T12:48:37.676Z,5.75
2022-12-31T12:59:13.808Z,4.70
2022-12-31T13:04:36.866Z,5.97
2022-12-31T13:10:00.538Z,5.05
2022-12-31T13:15:16.003Z,4.78
2022-12-31T13:20:39.362Z,4.30
2022-12-31T13:25:55.337Z,4.60
2022-12-31T13:31:08.037Z,5.45
2022-12-31T13:36:13.770Z,5.07
2022-12-31T13:41:17.950Z,3.70
2022-12-31T13:46:31.367Z,3.22
2022-12-31T13:51:47.126Z,3.30
2022-12-31T13:56:49.022Z,3.53
2022-12-31T14:02:02.067Z,4.87
2022-12-31T14:07:12.519Z,4.60
2022-12-31T14:12:17.282Z,3.70
2022-12-31T14:17:32.780Z,5.03
2022-12-31T14:22:45.174Z,6.22
2022-12-31T14:27:47.864Z,3.90
2022-12-31T14:38:38.515Z,5.28
2022-12-31T14:43:54.100Z,10.30
2022-12-31T14:49:02.423Z,6.00
2022-12-31T14:54:05.021Z,6.30
2022-12-31T15:04:45.786Z,6.45
2022-12-31T15:10:05.967Z,8.73
2022-12-31T15:15:29.133Z,7.28
2022-12-31T15:21:00.929Z,9.80
2022-12-31T15:26:03.187Z,8.15
2022-12-31T15:31:05.055Z,7.43
2022-12-31T15:36:21.780Z,7.80
2022-12-31T15:41:36.779Z,8.38
2022-12-31T15:46:39.599Z,10.18
2022-12-31T15:51:56.353Z,9.10
2022-12-31T15:57:09.038Z,10.90
2022-12-31T16:07:42.052Z,13.00
2022-12-31T16:12:44.943Z,12.75
2022-12-31T16:17:46.913Z,13.30
2022-12-31T16:22:52.967Z,9.67
2022-12-31T16:27:54.848Z,12.52
2022-12-31T16:32:59.714Z,13.00
2022-12-31T16:38:13.120Z,13.10
2022-12-31T16:43:24.675Z,10.85
2022-12-31T16:48:26.503Z,9.40
2022-12-31T16:53:36.014Z,4.70
2022-12-31T16:58:40.512Z,5.10
2022-12-31T17:03:44.444Z,5.18
2022-12-31T17:08:46.136Z,5.45
2022-12-31T17:13:54.025Z,6.90
2022-12-31T17:18:55.863Z,5.32
2022-12-31T17:24:03.404Z,5.30
2022-12-31T17:29:05.234Z,6.80
2022-12-31T17:34:13.153Z,10.57
2022-12-31T17:39:19.194Z,6.93
2022-12-31T17:44:22.168Z,5.20
2022-12-31T17:49:51.584Z,4.32
2022-12-31T18:00:16.417Z,5.05
2022-12-31T18:05:19.958Z,5.45
2022-12-31T18:10:23.079Z,6.68
2022-12-31T18:15:25.073Z,5.60
2022-12-31T18:20:26.859Z,5.53
2022-12-31T18:25:28.690Z,6.73
2022-12-31T18:30:30.567Z,5.27
2022-12-31T18:36:06.985Z,5.40
2022-12-31T18:40:56.076Z,6.95
2022-12-31T18:45:58.145Z,7.30
2022-12-31T18:51:00.064Z,8.50
2022-12-31T18:56:02.789Z,7.20
2022-12-31T19:01:04.975Z,9.10
2022-12-31T19:06:07.137Z,7.93
2022-12-31T19:11:09.797Z,7.70
2022-12-31T19:21:17.839Z,7.20
2022-12-31T19:26:20.856Z,9.40
2022-12-31T19:31:22.846Z,9.73
2022-12-31T19:36:24.739Z,10.90
2022-12-31T19:41:26.710Z,11.87
2022-12-31T19:46:28.527Z,8.60
2022-12-31T19:51:30.400Z,7.10
2022-12-31T19:56:32.228Z,6.87
2022-12-31T20:01:34.254Z,10.27
2022-12-31T20:06:36.332Z,10.45
2022-12-31T20:11:38.203Z,14.27
2022-12-31T20:16:40.148Z,14.10
2022-12-31T20:21:42.107Z,14.27
2022-12-31T20:26:43.948Z,13.17
2022-12-31T20:31:46.357Z,11.00
2022-12-31T20:36:48.295Z,13.60
2022-12-31T20:41:50.212Z,11.53
2022-12-31T20:46:52.051Z,12.53
2022-12-31T20:51:54.157Z,12.47
2022-12-31T20:56:55.965Z,13.13
2022-12-31T21:02:21.090Z,14.47
2022-12-31T21:07:19.622Z,11.93
2022-12-31T21:12:21.703Z,18.53
2022-12-31T21:17:23.630Z,15.93
2022-12-31T21:22:25.417Z,11.63
2022-12-31T21:27:28.069Z,15.43
2022-12-31T21:37:58.178Z,26.38
2022-12-31T21:42:53.311Z,21.52
2022-12-31T21:47:58.351Z,27.97
2022-12-31T21:53:00.256Z,33.58
2022-12-31T22:03:23.930Z,35.28
2022-12-31T22:08:26.064Z,64.77
2022-12-31T22:13:27.957Z,66.25
2022-12-31T22:18:29.869Z,60.77
2022-12-31T22:23:32.015Z,27.93
2022-12-31T22:28:39.171Z,30.92
2022-12-31T22:33:42.230Z,29.13
2022-12-31T22:38:44.223Z,29.02
2022-12-31T22:43:50.554Z,37.33
2022-12-31T22:48:53.367Z,35.45
2022-12-31T22:53:55.251Z,28.67
2022-12-31T22:58:57.267Z,28.40
2022-12-31T23:03:59.226Z,33.85
2022-12-31T23:09:01.142Z,36.93
2022-12-31T23:14:03.125Z,172.43
2022-12-31T23:19:05.713Z,135.00
2022-12-31T23:29:20.091Z,27.17
2022-12-31T23:34:22.010Z,27.20
2022-12-31T23:39:23.845Z,24.50
2022-12-31T23:44:25.737Z,25.47
2022-12-31T23:49:27.650Z,25.67
2022-12-31T23:54:29.591Z,29.80
2022-12-31T23:59:31.574Z,25.27
